createdAt,value
2022-09-02T00:01:41.523Z,12.63
2022-09-02T00:04:17.779Z,12.57
2022-09-02T00:06:46.782Z,12.49
2022-09-02T00:09:17.474Z,12.50
2022-09-02T00:11:47.879Z,12.47
2022-09-02T00:14:22.123Z,12.39
2022-09-02T00:16:52.849Z,12.38
2022-09-02T00:19:25.743Z,12.37
2022-09-02T00:21:54.859Z,12.20
2022-09-02T00:24:24.070Z,12.04
2022-09-02T00:26:51.563Z,12.09
2022-09-02T00:29:24.038Z,12.13
2022-09-02T00:32:11.587Z,12.19
2022-09-02T00:34:38.387Z,12.18
2022-09-02T00:37:05.205Z,12.19
2022-09-02T00:39:32.056Z,11.96
2022-09-02T00:41:58.991Z,11.96
2022-09-02T00:44:25.777Z,12.02
2022-09-02T00:46:52.698Z,11.92
2022-09-02T00:49:26.726Z,11.96
2022-09-02T00:52:00.666Z,11.92
2022-09-02T00:54:31.658Z,11.89
2022-09-02T00:56:59.311Z,11.89
2022-09-02T01:00:05.578Z,11.90
2022-09-02T01:02:33.757Z,11.87
2022-09-02T01:05:03.294Z,11.79
2022-09-02T01:07:34.462Z,11.81
2022-09-02T01:10:02.563Z,11.80
2022-09-02T01:12:31.377Z,11.79
2022-09-02T01:14:58.846Z,11.76
2022-09-02T01:17:26.846Z,11.66
2022-09-02T01:20:07.345Z,11.53
2022-09-02T01:22:34.667Z,11.62
2022-09-02T01:25:08.926Z,11.50
2022-09-02T01:27:35.822Z,11.46
2022-09-02T01:30:05.246Z,11.49
2022-09-02T01:32:32.185Z,11.50
2022-09-02T01:34:59.498Z,11.43
2022-09-02T01:37:26.797Z,11.49
2022-09-02T01:39:53.975Z,11.31
2022-09-02T01:42:21.607Z,11.33
2022-09-02T01:44:48.893Z,11.31
2022-09-02T01:47:22.817Z,11.28
2022-09-02T01:49:51.247Z,11.34
2022-09-02T01:52:20.000Z,11.23
2022-09-02T01:54:47.021Z,11.32
2022-09-02T01:57:14.882Z,11.30
2022-09-02T01:59:44.743Z,11.22
2022-09-02T02:02:11.903Z,11.23
2022-09-02T02:04:39.214Z,11.23
2022-09-02T02:07:06.851Z,11.21
2022-09-02T02:09:33.934Z,11.14
2022-09-02T02:12:00.782Z,11.12
2022-09-02T02:14:27.542Z,11.07
2022-09-02T02:16:54.401Z,11.07
2022-09-02T02:19:21.170Z,10.98
2022-09-02T02:21:47.923Z,11.06
2022-09-02T02:24:14.808Z,11.04
2022-09-02T02:26:42.461Z,10.92
2022-09-02T02:29:09.433Z,10.98
2022-09-02T02:31:36.318Z,10.85
2022-09-02T02:34:04.262Z,10.85
2022-09-02T02:36:31.643Z,10.75
2022-09-02T02:38:59.348Z,10.78
2022-09-02T02:41:26.708Z,10.71
2022-09-02T02:43:53.827Z,10.67
2022-09-02T02:46:20.653Z,10.66
2022-09-02T02:48:47.682Z,10.52
2022-09-02T02:51:14.993Z,10.60
2022-09-02T02:53:41.785Z,10.57
2022-09-02T02:56:09.950Z,10.53
2022-09-02T02:58:36.953Z,10.52
2022-09-02T03:01:03.985Z,10.37
2022-09-02T03:03:32.435Z,10.42
2022-09-02T03:06:00.002Z,10.39
2022-09-02T03:08:27.689Z,10.37
2022-09-02T03:10:57.902Z,10.39
2022-09-02T03:13:27.030Z,10.45
2022-09-02T03:15:57.518Z,10.46
2022-09-02T03:18:24.445Z,10.48
2022-09-02T03:20:51.558Z,10.38
2022-09-02T03:23:18.984Z,10.41
2022-09-02T03:25:46.858Z,10.55
2022-09-02T03:28:13.823Z,10.31
2022-09-02T03:30:41.890Z,10.34
2022-09-02T03:33:08.868Z,10.32
2022-09-02T03:35:42.017Z,10.36
2022-09-02T03:38:10.907Z,10.43
2022-09-02T03:40:38.547Z,10.33
2022-09-02T03:43:05.527Z,10.27
2022-09-02T03:45:32.699Z,10.25
2022-09-02T03:48:00.001Z,10.20
2022-09-02T03:50:34.506Z,10.14
2022-09-02T03:53:01.405Z,10.09
2022-09-02T03:55:29.470Z,10.08
2022-09-02T03:57:56.230Z,10.12
2022-09-02T04:00:29.071Z,10.19
2022-09-02T04:02:56.574Z,10.12
2022-09-02T04:05:24.527Z,10.16
2022-09-02T04:07:52.707Z,10.16
2022-09-02T04:10:22.003Z,10.18
2022-09-02T04:12:50.254Z,10.20
2022-09-02T04:15:19.133Z,10.19
2022-09-02T04:17:46.545Z,10.13
2022-09-02T04:20:14.021Z,10.11
2022-09-02T04:22:41.625Z,10.05
2022-09-02T04:25:09.767Z,10.03
2022-09-02T04:27:37.597Z,10.00
2022-09-02T04:30:05.472Z,9.98
2022-09-02T04:32:35.825Z,9.95
2022-09-02T04:35:07.053Z,9.74
2022-09-02T04:37:33.865Z,9.78
2022-09-02T04:40:00.837Z,9.69
2022-09-02T04:42:27.914Z,9.68
2022-09-02T04:44:56.637Z,9.70
2022-09-02T04:47:23.893Z,9.72
2022-09-02T04:49:54.401Z,9.69
2022-09-02T04:52:21.540Z,9.67
2022-09-02T04:54:48.812Z,9.63
2022-09-02T04:57:16.322Z,9.56
2022-09-02T04:59:43.699Z,9.42
2022-09-02T05:02:11.208Z,9.56
2022-09-02T05:04:40.966Z,9.62
2022-09-02T05:07:07.823Z,9.72
2022-09-02T05:09:34.754Z,9.72
2022-09-02T05:12:04.533Z,9.74
2022-09-02T05:14:32.897Z,9.66
2022-09-02T05:17:05.193Z,9.53
2022-09-02T05:19:34.501Z,9.64
2022-09-02T05:22:01.959Z,9.60
2022-09-02T05:24:29.719Z,9.63
2022-09-02T05:26:56.870Z,9.70
2022-09-02T05:29:24.189Z,9.67
2022-09-02T05:31:51.401Z,9.60
2022-09-02T05:34:18.841Z,9.69
2022-09-02T05:36:46.806Z,9.67
2022-09-02T05:39:13.780Z,9.69
2022-09-02T05:41:40.985Z,9.76
2022-09-02T05:44:07.855Z,9.71
2022-09-02T05:46:35.954Z,9.75
2022-09-02T05:49:07.622Z,9.91
2022-09-02T05:51:54.297Z,9.83
2022-09-02T05:54:31.700Z,9.80
2022-09-02T05:57:05.086Z,9.89
2022-09-02T05:59:38.988Z,9.96
2022-09-02T06:02:06.617Z,9.99
2022-09-02T06:04:48.546Z,10.07
2022-09-02T06:07:17.325Z,10.13
2022-09-02T06:09:45.106Z,10.04
2022-09-02T06:12:14.539Z,10.12
2022-09-02T06:14:42.075Z,10.13
2022-09-02T06:17:09.807Z,10.16
2022-09-02T06:19:37.209Z,10.27
2022-09-02T06:22:05.426Z,10.33
2022-09-02T06:24:32.637Z,10.44
2022-09-02T06:27:01.973Z,10.44
2022-09-02T06:29:29.601Z,10.55
2022-09-02T06:31:56.424Z,10.57
2022-09-02T06:34:27.378Z,10.70
2022-09-02T06:36:54.374Z,10.88
2022-09-02T06:39:23.813Z,11.06
2022-09-02T06:41:50.764Z,11.03
2022-09-02T06:44:21.635Z,11.16
2022-09-02T06:46:56.154Z,11.31
2022-09-02T06:49:26.334Z,11.40
2022-09-02T06:51:56.527Z,11.50
2022-09-02T06:54:24.134Z,11.69
2022-09-02T06:56:51.886Z,11.80
2022-09-02T06:59:20.861Z,11.88
2022-09-02T07:01:49.077Z,12.08
2022-09-02T07:04:35.929Z,12.31
2022-09-02T07:07:06.350Z,12.65
2022-09-02T07:09:33.277Z,12.89
2022-09-02T07:12:05.157Z,13.08
2022-09-02T07:14:40.439Z,13.30
2022-09-02T07:17:09.440Z,13.62
2022-09-02T07:19:36.463Z,13.79
2022-09-02T07:22:05.723Z,13.92
2022-09-02T07:24:33.059Z,13.85
2022-09-02T07:26:59.885Z,13.97
2022-09-02T07:29:26.810Z,14.33
2022-09-02T07:31:53.869Z,14.47
2022-09-02T07:34:21.441Z,14.81
2022-09-02T07:36:48.800Z,15.02
2022-09-02T07:39:17.866Z,15.20
2022-09-02T07:41:49.066Z,15.16
2022-09-02T07:44:17.680Z,15.33
2022-09-02T07:46:44.758Z,15.35
2022-09-02T07:49:15.749Z,15.58
2022-09-02T07:51:49.254Z,15.83
2022-09-02T07:54:19.962Z,16.17
2022-09-02T07:56:46.766Z,16.19
2022-09-02T07:59:13.737Z,16.35
2022-09-02T08:04:27.552Z,16.49
2022-09-02T08:06:54.957Z,16.52
2022-09-02T08:09:23.157Z,16.59
2022-09-02T08:11:51.519Z,16.63
2022-09-02T08:14:26.156Z,16.95
2022-09-02T08:16:54.025Z,17.00
2022-09-02T08:19:22.129Z,17.32
2022-09-02T08:21:48.994Z,17.35
2022-09-02T08:24:15.765Z,17.48
2022-09-02T08:26:42.592Z,17.68
2022-09-02T08:29:10.043Z,17.75
2022-09-02T08:31:38.002Z,18.02
2022-09-02T08:34:05.457Z,18.16
2022-09-02T08:36:32.324Z,18.25
2022-09-02T08:39:02.658Z,18.45
2022-09-02T08:42:04.160Z,18.52
2022-09-02T08:44:36.878Z,18.65
2022-09-02T08:47:12.290Z,18.68
2022-09-02T08:49:44.822Z,18.70
2022-09-02T08:52:21.236Z,18.77
2022-09-02T08:54:57.753Z,19.10
2022-09-02T08:57:27.237Z,19.11
2022-09-02T09:00:00.259Z,19.10
2022-09-02T09:02:32.895Z,18.95
2022-09-02T09:05:32.137Z,19.25
2022-09-02T09:08:33.946Z,19.52
2022-09-02T09:11:11.250Z,19.61
2022-09-02T09:13:46.878Z,19.58
2022-09-02T09:16:43.382Z,19.97
2022-09-02T09:19:49.835Z,19.63
2022-09-02T09:22:20.954Z,19.51
2022-09-02T09:24:50.881Z,19.74
2022-09-02T09:27:23.360Z,19.85
2022-09-02T09:29:51.849Z,20.13
2022-09-02T09:32:35.193Z,20.57
2022-09-02T09:35:07.671Z,20.81
2022-09-02T09:37:52.356Z,20.61
2022-09-02T09:40:19.125Z,20.69
2022-09-02T09:42:49.885Z,20.58
2022-09-02T09:45:34.798Z,20.31
2022-09-02T09:48:16.802Z,20.56
2022-09-02T09:50:57.263Z,20.59
2022-09-02T09:53:30.402Z,20.90
2022-09-02T09:56:18.743Z,21.22
2022-09-02T09:58:48.208Z,21.18
2022-09-02T10:01:29.816Z,20.98
2022-09-02T10:04:32.260Z,21.02
2022-09-02T10:06:56.493Z,21.03
2022-09-02T10:09:35.288Z,21.09
2022-09-02T10:12:33.016Z,21.24
2022-09-02T10:14:59.856Z,21.30
2022-09-02T10:18:31.662Z,21.43
2022-09-02T10:21:30.621Z,21.64
2022-09-02T10:24:37.245Z,21.30
2022-09-02T10:27:09.293Z,21.29
2022-09-02T10:30:00.308Z,21.24
2022-09-02T10:32:32.712Z,21.52
2022-09-02T10:35:08.675Z,21.82
2022-09-02T10:37:59.634Z,21.71
2022-09-02T10:40:45.773Z,21.85
2022-09-02T10:43:41.723Z,21.80
2022-09-02T10:46:12.437Z,22.15
2022-09-02T10:49:05.355Z,21.85
2022-09-02T10:51:54.396Z,22.28
2022-09-02T10:54:50.953Z,22.48
2022-09-02T10:57:28.553Z,22.60
2022-09-02T11:00:18.766Z,22.52
2022-09-02T11:03:02.381Z,22.65
2022-09-02T11:05:45.768Z,22.73
2022-09-02T11:08:36.906Z,22.96
2022-09-02T11:11:32.830Z,23.07
2022-09-02T11:14:21.323Z,22.79
2022-09-02T11:17:02.763Z,22.40
2022-09-02T11:19:46.443Z,22.46
2022-09-02T11:22:40.334Z,22.75
2022-09-02T11:25:18.330Z,22.82
2022-09-02T11:27:57.389Z,22.83
2022-09-02T11:30:36.747Z,22.47
2022-09-02T11:33:18.449Z,22.45
2022-09-02T11:35:45.319Z,23.01
2022-09-02T11:38:34.657Z,23.27
2022-09-02T11:41:36.869Z,22.92
2022-09-02T11:45:03.832Z,23.15
2022-09-02T11:47:54.445Z,23.54
2022-09-02T11:50:45.762Z,23.90
2022-09-02T11:53:28.926Z,24.11
2022-09-02T11:56:15.850Z,24.17
2022-09-02T11:58:49.690Z,23.88
2022-09-02T12:01:24.452Z,24.21
2022-09-02T12:07:19.876Z,24.65
2022-09-02T12:09:52.317Z,24.62
2022-09-02T12:12:38.451Z,24.97
2022-09-02T12:15:05.498Z,25.17
2022-09-02T12:17:51.767Z,24.71
2022-09-02T12:20:41.545Z,24.38
2022-09-02T12:23:48.847Z,24.83
2022-09-02T12:26:37.697Z,25.25
2022-09-02T12:29:13.392Z,25.51
2022-09-02T12:31:47.248Z,25.51
2022-09-02T12:34:25.839Z,25.31
2022-09-02T12:37:03.386Z,25.50
2022-09-02T12:39:32.880Z,25.70
2022-09-02T12:42:12.058Z,25.47
2022-09-02T12:45:31.007Z,25.62
2022-09-02T12:48:18.309Z,25.81
2022-09-02T12:51:00.167Z,25.64
2022-09-02T12:53:37.172Z,25.84
2022-09-02T12:56:16.973Z,25.98
2022-09-02T12:58:53.191Z,26.07
2022-09-02T13:01:38.092Z,25.77
2022-09-02T13:04:32.570Z,25.92
2022-09-02T13:07:44.171Z,26.28
2022-09-02T13:10:41.573Z,26.24
2022-09-02T13:13:49.286Z,26.02
2022-09-02T13:17:42.501Z,26.02
2022-09-02T13:21:00.520Z,26.06
2022-09-02T13:24:04.704Z,26.04
2022-09-02T13:27:14.167Z,26.21
2022-09-02T13:29:51.061Z,26.49
2022-09-02T13:32:20.839Z,26.77
2022-09-02T13:34:52.203Z,26.97
2022-09-02T13:37:43.567Z,27.26
2022-09-02T13:40:33.951Z,27.41
2022-09-02T13:43:24.139Z,27.31
2022-09-02T13:45:52.118Z,27.50
2022-09-02T13:48:26.334Z,27.71
2022-09-02T13:50:58.140Z,27.93
2022-09-02T13:53:59.016Z,27.88
2022-09-02T13:56:29.244Z,28.01
2022-09-02T13:58:57.187Z,28.21
2022-09-02T14:01:38.238Z,28.10
2022-09-02T14:04:12.070Z,28.02
2022-09-02T14:06:45.975Z,28.05
2022-09-02T14:09:23.136Z,27.96
2022-09-02T14:11:50.790Z,28.23
2022-09-02T14:14:22.891Z,28.43
2022-09-02T14:16:49.869Z,28.45
2022-09-02T14:19:16.604Z,28.21
2022-09-02T14:22:02.542Z,28.51
2022-09-02T14:24:38.068Z,28.67
2022-09-02T14:27:18.594Z,28.79
2022-09-02T14:29:53.112Z,29.05
2022-09-02T14:32:26.037Z,28.59
2022-09-02T14:35:27.953Z,28.59
2022-09-02T14:37:59.718Z,27.58
2022-09-02T14:40:44.992Z,27.86
2022-09-02T14:43:14.482Z,28.83
2022-09-02T14:45:47.969Z,28.50
2022-09-02T14:48:24.626Z,28.92
2022-09-02T14:51:02.759Z,29.21
2022-09-02T14:53:30.142Z,29.38
2022-09-02T14:55:57.968Z,29.61
2022-09-02T14:58:27.757Z,29.86
2022-09-02T15:01:02.539Z,30.57
2022-09-02T15:03:32.130Z,30.67
2022-09-02T15:05:59.247Z,30.28
2022-09-02T15:08:26.231Z,30.84
2022-09-02T15:10:54.928Z,31.13
2022-09-02T15:13:48.471Z,31.68
2022-09-02T15:16:16.335Z,31.74
2022-09-02T15:18:43.414Z,31.62
2022-09-02T15:21:10.773Z,31.92
2022-09-02T15:23:41.159Z,31.19
2022-09-02T15:26:08.864Z,30.19
2022-09-02T15:28:36.122Z,29.97
2022-09-02T15:31:03.293Z,29.45
2022-09-02T15:33:31.213Z,29.15
2022-09-02T15:36:13.380Z,28.57
2022-09-02T15:38:41.293Z,28.13
2022-09-02T15:41:35.246Z,27.45
2022-09-02T15:44:02.981Z,27.18
2022-09-02T15:46:32.307Z,26.92
2022-09-02T15:49:11.978Z,26.53
2022-09-02T15:51:39.914Z,26.63
2022-09-02T15:54:11.389Z,26.27
2022-09-02T15:56:46.001Z,26.01
2022-09-02T15:59:18.689Z,25.73
2022-09-02T16:01:52.270Z,25.59
2022-09-02T16:04:19.253Z,25.27
2022-09-02T16:06:49.347Z,25.08
2022-09-02T16:09:18.138Z,24.94
2022-09-02T16:11:54.287Z,25.01
2022-09-02T16:14:23.505Z,24.95
2022-09-02T16:16:53.314Z,24.87
2022-09-02T16:19:22.725Z,24.85
2022-09-02T16:21:50.900Z,24.80
2022-09-02T16:24:22.907Z,24.61
2022-09-02T16:26:51.170Z,24.51
2022-09-02T16:29:19.649Z,24.15
2022-09-02T16:34:36.103Z,23.91
2022-09-02T16:37:02.927Z,24.01
2022-09-02T16:39:29.840Z,23.88
2022-09-02T16:41:57.253Z,23.86
2022-09-02T16:44:26.126Z,23.79
2022-09-02T16:46:53.947Z,23.74
2022-09-02T16:49:22.290Z,23.55
2022-09-02T16:51:52.451Z,23.49
2022-09-02T16:54:31.499Z,23.39
2022-09-02T16:57:01.387Z,23.37
2022-09-02T16:59:28.846Z,23.27
2022-09-02T17:01:55.715Z,23.15
2022-09-02T17:04:23.970Z,23.05
2022-09-02T17:06:51.386Z,22.99
2022-09-02T17:09:18.226Z,22.79
2022-09-02T17:11:45.667Z,22.60
2022-09-02T17:14:16.591Z,22.35
2022-09-02T17:16:49.217Z,22.19
2022-09-02T17:19:22.493Z,22.27
2022-09-02T17:21:55.036Z,22.11
2022-09-02T17:24:25.325Z,22.12
2022-09-02T17:26:56.332Z,21.92
2022-09-02T17:32:13.870Z,21.54
2022-09-02T17:34:41.932Z,21.30
2022-09-02T17:37:09.797Z,21.31
2022-09-02T17:39:38.732Z,21.33
2022-09-02T17:42:06.800Z,21.19
2022-09-02T17:44:39.708Z,21.10
2022-09-02T17:47:14.369Z,21.28
2022-09-02T17:49:44.991Z,20.89
2022-09-02T17:52:20.886Z,21.11
2022-09-02T17:54:53.016Z,20.94
2022-09-02T17:57:29.150Z,20.84
2022-09-02T18:00:09.982Z,20.48
2022-09-02T18:02:37.516Z,20.61
2022-09-02T18:05:56.553Z,20.48
2022-09-02T18:08:32.296Z,20.32
2022-09-02T18:11:05.412Z,20.46
2022-09-02T18:13:54.201Z,20.03
2022-09-02T18:16:40.380Z,19.95
2022-09-02T18:19:37.678Z,19.94
2022-09-02T18:23:01.703Z,19.92
2022-09-02T18:26:02.159Z,20.01
2022-09-02T18:28:46.821Z,19.96
2022-09-02T18:31:35.434Z,19.86
2022-09-02T18:34:58.554Z,19.81
2022-09-02T18:38:21.707Z,19.73
2022-09-02T18:41:24.514Z,19.60
2022-09-02T18:44:16.281Z,19.58
2022-09-02T18:46:59.357Z,19.54
2022-09-02T18:49:32.091Z,19.60
2022-09-02T18:52:01.869Z,19.59
2022-09-02T18:54:54.434Z,19.56
2022-09-02T18:57:21.525Z,19.52
2022-09-02T19:00:09.583Z,19.48
2022-09-02T19:02:46.531Z,19.54
2022-09-02T19:05:21.887Z,19.52
2022-09-02T19:08:18.417Z,19.41
2022-09-02T19:10:45.454Z,19.44
2022-09-02T19:13:12.660Z,19.05
2022-09-02T19:15:40.490Z,19.05
2022-09-02T19:18:08.073Z,19.00
2022-09-02T19:20:36.305Z,18.82
2022-09-02T19:23:06.414Z,18.83
2022-09-02T19:25:34.274Z,18.88
2022-09-02T19:28:02.886Z,18.98
2022-09-02T19:30:37.248Z,19.02
2022-09-02T19:33:07.816Z,18.91
2022-09-02T19:35:36.367Z,18.64
2022-09-02T19:38:03.352Z,18.49
2022-09-02T19:40:36.598Z,18.52
2022-09-02T19:43:07.369Z,18.54
2022-09-02T19:45:39.081Z,18.56
2022-09-02T19:48:11.354Z,18.56
2022-09-02T19:50:44.398Z,18.54
2022-09-02T19:53:29.732Z,18.59
2022-09-02T19:55:58.706Z,18.52
2022-09-02T19:58:26.443Z,18.42
2022-09-02T20:00:54.296Z,18.41
2022-09-02T20:03:22.185Z,18.44
2022-09-02T20:05:55.402Z,18.29
2022-09-02T20:08:28.927Z,18.33
2022-09-02T20:11:02.703Z,18.34
2022-09-02T20:13:38.617Z,18.27
2022-09-02T20:16:22.651Z,18.08
2022-09-02T20:18:51.295Z,18.12
2022-09-02T20:21:32.398Z,18.11
2022-09-02T20:24:09.165Z,17.97
2022-09-02T20:26:49.886Z,17.79
2022-09-02T20:29:34.785Z,17.87
2022-09-02T20:32:43.113Z,17.89
2022-09-02T20:35:38.466Z,17.92
2022-09-02T20:38:48.314Z,17.91
2022-09-02T20:41:55.296Z,17.89
2022-09-02T20:44:36.294Z,17.80
2022-09-02T20:47:39.835Z,17.78
2022-09-02T20:50:31.822Z,17.62
2022-09-02T20:53:35.496Z,17.60
2022-09-02T20:56:17.341Z,17.42
2022-09-02T20:59:28.953Z,17.27
2022-09-02T21:02:00.020Z,17.22
2022-09-02T21:04:41.969Z,17.22
2022-09-02T21:07:18.236Z,17.18
2022-09-02T21:10:29.834Z,17.15
2022-09-02T21:13:43.322Z,17.18
2022-09-02T21:16:23.666Z,17.21
2022-09-02T21:18:59.252Z,17.30
2022-09-02T21:22:09.524Z,17.06
2022-09-02T21:24:43.111Z,16.77
2022-09-02T21:27:18.513Z,16.80
2022-09-02T21:30:05.680Z,16.85
2022-09-02T21:33:12.202Z,16.83
2022-09-02T21:35:50.773Z,16.84
2022-09-02T21:38:41.230Z,16.72
2022-09-02T21:41:36.513Z,16.61
2022-09-02T21:44:28.109Z,16.67
2022-09-02T21:47:25.738Z,16.78
2022-09-02T21:50:37.789Z,16.69
2022-09-02T21:53:53.818Z,16.66
2022-09-02T21:56:36.783Z,16.53
2022-09-02T21:59:14.674Z,16.65
2022-09-02T22:02:01.477Z,16.66
2022-09-02T22:04:44.400Z,16.72
2022-09-02T22:07:19.162Z,16.73
2022-09-02T22:10:18.279Z,16.69
2022-09-02T22:12:52.017Z,16.79
2022-09-02T22:15:59.685Z,16.68
2022-09-02T22:18:55.418Z,16.53
2022-09-02T22:21:31.010Z,16.59
2022-09-02T22:23:59.533Z,16.49
2022-09-02T22:27:08.899Z,16.49
2022-09-02T22:29:50.790Z,16.47
2022-09-02T22:32:22.522Z,16.44
2022-09-02T22:35:27.940Z,16.28
2022-09-02T22:38:26.670Z,16.20
2022-09-02T22:41:25.464Z,16.14
2022-09-02T22:44:03.510Z,15.97
2022-09-02T22:47:03.161Z,16.04
2022-09-02T22:49:56.761Z,15.94
2022-09-02T22:52:50.674Z,15.97
2022-09-02T22:55:40.020Z,15.95
2022-09-02T22:58:23.096Z,16.08
2022-09-02T23:01:19.933Z,15.90
2022-09-02T23:04:11.422Z,15.73
2022-09-02T23:06:39.158Z,15.64
2022-09-02T23:09:11.487Z,15.63
2022-09-02T23:11:51.211Z,15.48
2022-09-02T23:14:35.155Z,15.38
2022-09-02T23:17:23.732Z,15.34
2022-09-02T23:19:59.840Z,15.34
2022-09-02T23:23:03.446Z,15.40
2022-09-02T23:26:10.838Z,15.38
2022-09-02T23:28:48.669Z,15.40
2022-09-02T23:31:33.645Z,15.48
2022-09-02T23:34:29.663Z,15.53
2022-09-02T23:37:48.149Z,15.45
2022-09-02T23:40:40.129Z,15.34
2022-09-02T23:43:08.065Z,15.29
2022-09-02T23:45:35.759Z,15.18
2022-09-02T23:48:23.512Z,15.17
2022-09-02T23:51:39.597Z,15.27
2022-09-02T23:54:33.069Z,15.33
2022-09-02T23:57:22.738Z,15.38
